Time;durP1;ratioP1;P1;durP2;ratioP2;P2;SDS_P1;SDS_P2;PMS_P1;PMS_P2;Temp;Humidity;BMP_temperature;BMP_pressure;BME280_temperature;BME280_humidity;BME280_pressure;Samples;Min_cycle;Max_cycle;Signal;HPM_P1;HPM_P2
2022/11/06 00:01:21;;;;;;;14.85;9.98;;;3.70;86.00;;;;;;5053149;28;20083;-76
2022/11/06 00:03:47;;;;;;;14.18;9.30;;;3.70;86.00;;;;;;5053450;28;20075;-76
2022/11/06 00:09:02;;;;;;;14.55;9.82;;;3.70;86.30;;;;;;5053418;28;20496;-79
2022/11/06 00:11:29;;;;;;;14.68;9.60;;;3.70;86.50;;;;;;5053026;28;20140;-78
2022/11/06 00:13:54;;;;;;;14.75;9.05;;;3.70;86.70;;;;;;5053216;28;20047;-77
2022/11/06 00:16:20;;;;;;;13.55;9.32;;;3.70;86.80;;;;;;5053067;28;20025;-78
2022/11/06 00:18:46;;;;;;;12.70;8.98;;;3.80;86.90;;;;;;5053183;28;20053;-79
2022/11/06 00:21:24;;;;;;;15.00;9.55;;;3.80;87.00;;;;;;5049891;28;20451;-78
2022/11/06 00:23:51;;;;;;;19.02;9.82;;;3.90;86.80;;;;;;5034927;28;20486;-79
2022/11/06 00:26:20;;;;;;;15.13;10.93;;;3.90;86.50;;;;;;5035108;28;20025;-79
2022/11/06 00:28:46;;;;;;;15.23;9.65;;;3.90;86.30;;;;;;5052900;28;20029;-79
2022/11/06 00:31:14;;;;;;;13.18;9.40;;;3.90;86.10;;;;;;5034809;28;20037;-79
2022/11/06 00:33:40;;;;;;;16.35;10.63;;;3.90;86.90;;;;;;5052913;28;20032;-79
2022/11/06 00:36:08;;;;;;;12.68;9.52;;;3.90;86.10;;;;;;5052829;28;20033;-78
2022/11/06 00:38:34;;;;;;;14.40;10.23;;;3.80;86.10;;;;;;5034030;28;20025;-78
2022/11/06 00:41:10;;;;;;;18.23;10.18;;;3.80;86.30;;;;;;5052862;28;20465;-79
2022/11/06 00:43:36;;;;;;;14.77;9.75;;;3.90;86.70;;;;;;5052816;28;20025;-79
2022/11/06 00:46:06;;;;;;;14.30;9.82;;;3.80;87.00;;;;;;5052609;28;20106;-79
2022/11/06 00:48:33;;;;;;;15.52;10.93;;;3.80;87.60;;;;;;5052821;28;20020;-79
2022/11/06 00:51:11;;;;;;;14.57;9.77;;;3.80;87.50;;;;;;5034789;28;20029;-79
2022/11/06 00:53:38;;;;;;;15.80;10.10;;;3.80;87.00;;;;;;5034989;28;20027;-79
2022/11/06 00:56:08;;;;;;;14.88;9.10;;;3.80;87.10;;;;;;5052690;28;20565;-82
2022/11/06 00:58:34;;;;;;;16.42;10.35;;;3.80;87.00;;;;;;5052802;28;20029;-79
2022/11/06 01:01:20;;;;;;;16.45;10.85;;;3.70;86.70;;;;;;5034764;28;20031;-79
2022/11/06 01:03:52;;;;;;;15.52;10.63;;;3.70;86.70;;;;;;5052298;28;20029;-80
2022/11/06 01:06:20;;;;;;;15.93;11.35;;;3.70;86.80;;;;;;5052231;28;20029;-81
2022/11/06 01:08:47;;;;;;;15.75;10.65;;;3.70;86.90;;;;;;5052563;28;20087;-80
2022/11/06 01:11:16;;;;;;;19.13;10.80;;;3.70;86.90;;;;;;5034553;28;20033;-80
2022/11/06 01:13:43;;;;;;;17.48;9.68;;;3.80;86.90;;;;;;5052555;28;20021;-80
2022/11/06 01:16:11;;;;;;;14.70;9.48;;;3.70;86.50;;;;;;5052543;28;20025;-85
2022/11/06 01:18:38;;;;;;;14.73;9.50;;;3.70;86.60;;;;;;5034630;28;20425;-81
2022/11/06 01:21:15;;;;;;;16.02;9.52;;;3.70;86.60;;;;;;5052515;28;20075;-80
2022/11/06 01:23:41;;;;;;;18.02;10.35;;;3.60;86.90;;;;;;5052428;28;20036;-79
2022/11/06 01:26:09;;;;;;;14.70;9.40;;;3.60;87.30;;;;;;5034663;28;20021;-81
2022/11/06 01:28:35;;;;;;;15.65;9.82;;;3.60;87.40;;;;;;5034659;28;20021;-81
2022/11/06 01:31:06;;;;;;;17.05;10.43;;;3.60;87.50;;;;;;5052237;28;20095;-81
2022/11/06 01:33:32;;;;;;;14.07;9.20;;;3.60;87.60;;;;;;5035231;28;20381;-81
2022/11/06 01:35:58;;;;;;;13.40;9.23;;;3.60;87.50;;;;;;5053524;28;20025;-81
2022/11/06 01:38:24;;;;;;;14.55;9.70;;;3.60;87.80;;;;;;5053508;28;20075;-80
2022/11/06 01:40:49;;;;;;;14.68;10.02;;;3.60;86.90;;;;;;5053526;28;20035;-81
2022/11/06 01:43:23;;;;;;;13.85;10.00;;;3.60;86.90;;;;;;5054130;28;20028;-84
2022/11/06 01:45:51;;;;;;;16.90;10.07;;;3.50;87.10;;;;;;5034737;28;20037;-82
2022/11/06 01:48:20;;;;;;;17.17;10.00;;;3.50;87.50;;;;;;5053009;28;20059;-82
2022/11/06 01:50:50;;;;;;;11.93;8.80;;;3.50;87.80;;;;;;5056087;28;20033;-84
2022/11/06 01:53:16;;;;;;;14.25;9.32;;;3.50;87.70;;;;;;5038256;28;20020;-80
2022/11/06 01:55:44;;;;;;;13.10;9.05;;;3.50;87.30;;;;;;5055806;28;20075;-84
2022/11/06 01:58:16;;;;;;;12.38;8.65;;;3.50;87.50;;;;;;5037749;28;20078;-82
2022/11/06 02:00:42;;;;;;;12.68;8.35;;;3.50;87.70;;;;;;5055704;28;20108;-80
2022/11/06 02:03:08;;;;;;;13.07;8.23;;;3.60;87.70;;;;;;5038561;28;20021;-81
2022/11/06 02:05:35;;;;;;;14.23;8.82;;;3.70;87.60;;;;;;5039155;28;20029;-83
2022/11/06 02:08:02;;;;;;;11.88;8.10;;;3.70;87.10;;;;;;5055398;28;20036;-79
2022/11/06 02:10:28;;;;;;;13.50;8.30;;;3.70;87.00;;;;;;5055321;28;20033;-79
2022/11/06 02:12:58;;;;;;;11.85;7.82;;;3.80;86.80;;;;;;5055450;28;20509;-79
2022/11/06 02:16:00;;;;;;;12.52;8.15;;;3.80;86.70;;;;;;5055383;28;20029;-79
2022/11/06 02:18:41;;;;;;;11.55;7.93;;;3.80;86.40;;;;;;5055191;28;20021;-79
2022/11/06 02:21:13;;;;;;;10.80;7.65;;;3.80;86.50;;;;;;5055084;28;20488;-78
2022/11/06 02:23:57;;;;;;;13.05;8.10;;;3.80;86.50;;;;;;5055210;28;20051;-79
2022/11/06 02:26:32;;;;;;;13.65;8.02;;;3.80;86.40;;;;;;5054714;28;20028;-78
2022/11/06 02:29:14;;;;;;;11.38;7.72;;;3.80;86.20;;;;;;5055039;28;20017;-78
2022/11/06 02:31:42;;;;;;;15.30;8.25;;;3.80;86.10;;;;;;5055492;28;20086;-78
2022/11/06 02:34:13;;;;;;;11.35;7.82;;;3.70;86.40;;;;;;5037603;28;20416;-78
2022/11/06 02:36:49;;;;;;;16.52;8.18;;;3.70;86.30;;;;;;5054692;28;20059;-79
2022/11/06 02:39:18;;;;;;;13.40;8.13;;;3.70;86.20;;;;;;5054980;28;20032;-79
2022/11/06 02:41:45;;;;;;;16.17;9.95;;;3.70;86.00;;;;;;5036841;28;20021;-79
2022/11/06 02:44:16;;;;;;;16.55;9.50;;;3.60;87.10;;;;;;5054915;28;20029;-80
2022/11/06 02:46:59;;;;;;;15.05;9.18;;;3.50;87.70;;;;;;5054673;28;20041;-80
2022/11/06 02:49:37;;;;;;;13.90;9.45;;;3.50;87.70;;;;;;5037163;28;20095;-87
2022/11/06 02:52:08;;;;;;;14.88;9.32;;;3.50;87.20;;;;;;5036959;28;20029;-80
2022/11/06 02:54:38;;;;;;;18.02;9.55;;;3.40;87.20;;;;;;5054540;28;20461;-80
2022/11/06 02:57:09;;;;;;;15.77;9.93;;;3.30;87.40;;;;;;5036669;28;20028;-80
2022/11/06 02:59:59;;;;;;;14.55;9.60;;;3.20;87.40;;;;;;5036146;28;20025;-80
2022/11/06 03:02:51;;;;;;;15.55;9.80;;;3.20;87.50;;;;;;5036660;28;20025;-80
2022/11/06 03:05:26;;;;;;;15.27;10.35;;;3.20;87.70;;;;;;5023243;28;20043;-81
2022/11/06 03:08:21;;;;;;;16.83;10.00;;;3.10;88.00;;;;;;5054744;28;20025;-85
2022/11/06 03:11:18;;;;;;;16.60;10.32;;;3.10;88.00;;;;;;5055604;28;20044;-87
2022/11/06 03:13:50;;;;;;;15.25;9.68;;;3.10;88.20;;;;;;5037654;28;20120;-83
2022/11/06 03:16:34;;;;;;;15.93;9.63;;;3.10;88.10;;;;;;5055295;28;20075;-89
2022/11/06 03:19:09;;;;;;;15.15;9.30;;;3.10;88.30;;;;;;5055251;28;20469;-82
2022/11/06 03:22:04;;;;;;;14.07;8.40;;;3.20;88.00;;;;;;5037832;28;20075;-87
2022/11/06 03:24:45;;;;;;;15.32;9.65;;;3.20;87.80;;;;;;5037939;28;20037;-78
2022/11/06 03:27:17;;;;;;;13.52;9.35;;;3.10;87.80;;;;;;5038530;28;20129;-79
2022/11/06 03:29:47;;;;;;;16.55;9.63;;;3.00;88.00;;;;;;5073108;28;20036;-88
2022/11/06 03:32:27;;;;;;;15.57;10.85;;;3.10;88.20;;;;;;5062085;28;20024;-91
2022/11/06 03:35:02;;;;;;;13.02;9.75;;;3.00;88.20;;;;;;5056506;28;20029;-91
2022/11/06 03:37:35;;;;;;;13.30;9.02;;;3.00;88.10;;;;;;5054433;28;20025;-93
2022/11/06 03:40:04;;;;;;;14.63;9.27;;;3.10;88.00;;;;;;5055411;28;20482;-91
2022/11/06 03:42:30;;;;;;;13.10;9.10;;;3.00;87.80;;;;;;5037730;28;20151;-90
2022/11/06 03:45:01;;;;;;;13.73;9.50;;;3.00;87.60;;;;;;5055064;28;20036;-90
2022/11/06 03:47:39;;;;;;;13.13;9.23;;;2.90;87.70;;;;;;5054513;28;20044;-91
2022/11/06 03:50:08;;;;;;;12.93;9.23;;;2.90;87.80;;;;;;5055533;28;20033;-90
2022/11/06 03:52:42;;;;;;;13.88;9.88;;;2.80;88.20;;;;;;5056008;28;20036;-91
2022/11/06 03:55:17;;;;;;;13.55;9.02;;;2.80;89.00;;;;;;5043867;28;20121;-88
2022/11/06 03:57:54;;;;;;;13.90;9.30;;;2.80;89.20;;;;;;5070606;28;20021;-83
2022/11/06 04:00:20;;;;;;;14.52;9.32;;;2.80;89.20;;;;;;5076767;28;20120;-86
2022/11/06 04:02:51;;;;;;;13.70;9.55;;;2.80;88.60;;;;;;5040996;28;20072;-80
2022/11/06 04:05:23;;;;;;;13.63;8.70;;;2.90;88.40;;;;;;5038078;28;20432;-82
2022/11/06 04:16:17;;;;;;;12.82;8.25;;;2.80;88.50;;;;;;5054970;28;20032;-81
2022/11/06 04:18:42;;;;;;;13.48;8.95;;;2.80;88.60;;;;;;5053779;28;20060;-83
2022/11/06 04:21:34;;;;;;;12.38;8.75;;;2.80;88.50;;;;;;5053329;28;20072;-80
2022/11/06 04:27:21;;;;;;;13.93;8.88;;;2.90;88.20;;;;;;5053517;28;20097;-81
2022/11/06 04:29:46;;;;;;;12.82;8.55;;;2.80;88.30;;;;;;5052995;28;20059;-82
2022/11/06 04:32:23;;;;;;;14.27;8.57;;;2.80;88.30;;;;;;5035519;28;20024;-81
2022/11/06 04:35:26;;;;;;;12.80;8.23;;;2.70;88.50;;;;;;5052772;28;20017;-81
2022/11/06 04:38:24;;;;;;;14.38;8.60;;;2.80;88.80;;;;;;4985534;28;20037;-82
2022/11/06 04:41:01;;;;;;;11.68;7.90;;;2.70;88.80;;;;;;5035510;28;20021;-81
2022/11/06 04:43:52;;;;;;;12.57;8.02;;;2.70;88.80;;;;;;5052793;28;20111;-80
2022/11/06 04:46:32;;;;;;;10.50;7.55;;;2.70;89.80;;;;;;5041315;28;20056;-80
2022/11/06 04:48:59;;;;;;;10.65;7.63;;;2.70;89.00;;;;;;5035073;28;20176;-80
2022/11/06 04:51:31;;;;;;;13.10;8.65;;;2.80;89.10;;;;;;5034789;28;20516;-80
2022/11/06 04:53:57;;;;;;;14.63;8.25;;;2.80;88.40;;;;;;5052927;28;20492;-80
2022/11/06 04:56:28;;;;;;;12.68;7.97;;;2.80;88.30;;;;;;5035091;28;20377;-80
2022/11/06 04:58:54;;;;;;;10.15;7.57;;;2.80;88.30;;;;;;5053705;28;20481;-81
2022/11/06 05:01:20;;;;;;;11.93;7.97;;;2.80;88.00;;;;;;5036637;28;20029;-81
2022/11/06 05:03:45;;;;;;;11.30;8.10;;;2.80;88.00;;;;;;5034986;28;20028;-81
2022/11/06 05:06:12;;;;;;;12.60;8.88;;;2.80;88.30;;;;;;5052874;28;20029;-81
2022/11/06 05:08:38;;;;;;;12.35;8.90;;;2.70;88.50;;;;;;5058276;28;20482;-81
2022/11/06 05:11:04;;;;;;;12.50;7.85;;;2.70;88.80;;;;;;5034953;28;20033;-82
2022/11/06 05:13:29;;;;;;;11.02;7.72;;;2.70;88.90;;;;;;5034843;28;20067;-80
2022/11/06 05:15:56;;;;;;;10.70;7.53;;;2.70;89.00;;;;;;5053033;28;20021;-80
2022/11/06 05:18:23;;;;;;;13.18;8.05;;;2.70;89.00;;;;;;5052694;28;20021;-80
2022/11/06 05:22:56;;;;;;;13.00;8.38;;;2.70;88.80;;;;;;5052774;28;20025;-80
2022/11/06 05:23:34;;;;;;;13.13;7.47;;;2.60;89.10;;;;;;5053705;28;20040;-80
2022/11/06 05:25:59;;;;;;;12.57;7.70;;;2.60;89.40;;;;;;5038842;28;20491;-80
2022/11/06 05:28:25;;;;;;;12.75;8.48;;;2.50;89.70;;;;;;5056600;28;20017;-81
2022/11/06 05:30:51;;;;;;;15.25;8.13;;;2.50;89.80;;;;;;5038408;28;20068;-83
2022/11/06 05:33:16;;;;;;;14.43;8.57;;;2.50;90.20;;;;;;5038663;28;20485;-82
2022/11/06 05:35:42;;;;;;;11.57;8.32;;;2.50;90.20;;;;;;5038366;28;20024;-82
2022/11/06 05:38:07;;;;;;;14.05;7.88;;;2.50;90.30;;;;;;5038589;28;20479;-81
2022/11/06 05:40:33;;;;;;;13.35;8.25;;;2.50;90.40;;;;;;5038496;28;20017;-82
2022/11/06 05:42:58;;;;;;;13.80;8.57;;;2.50;90.30;;;;;;5038812;28;20056;-81
2022/11/06 05:45:24;;;;;;;11.98;7.82;;;2.60;90.20;;;;;;5056152;28;20025;-81
2022/11/06 05:47:50;;;;;;;14.02;8.85;;;2.60;91.10;;;;;;5038093;28;20049;-82
2022/11/06 05:50:15;;;;;;;13.55;8.20;;;2.60;90.00;;;;;;5056139;28;20056;-82
2022/11/06 05:52:41;;;;;;;13.05;8.65;;;2.60;89.90;;;;;;5056020;28;20444;-81
2022/11/06 05:55:07;;;;;;;13.10;8.25;;;2.60;90.00;;;;;;5055948;28;20048;-81
2022/11/06 05:57:33;;;;;;;12.98;7.63;;;2.60;90.00;;;;;;5037901;28;20445;-80
2022/11/06 05:59:58;;;;;;;11.18;7.60;;;2.70;90.20;;;;;;5037406;28;20486;-82
2022/11/06 06:02:24;;;;;;;12.73;8.23;;;2.70;90.10;;;;;;5055109;28;20033;-83
2022/11/06 06:04:50;;;;;;;13.05;8.45;;;2.80;90.00;;;;;;5054851;28;20021;-83
2022/11/06 06:07:15;;;;;;;13.05;8.10;;;2.80;89.90;;;;;;5054881;28;20381;-82
2022/11/06 06:09:41;;;;;;;15.15;8.88;;;2.80;89.90;;;;;;5054829;28;20150;-82
2022/11/06 06:12:09;;;;;;;13.48;8.70;;;2.90;90.00;;;;;;5037576;28;20116;-83
2022/11/06 06:14:35;;;;;;;15.27;9.18;;;2.90;90.00;;;;;;5055550;28;20025;-81
2022/11/06 06:17:01;;;;;;;15.07;9.15;;;3.00;90.30;;;;;;5056126;28;20473;-81
2022/11/06 06:19:27;;;;;;;13.00;8.68;;;3.00;90.40;;;;;;5037758;28;20021;-81
2022/11/06 06:21:52;;;;;;;14.77;8.52;;;3.10;90.50;;;;;;5037266;28;20048;-82
2022/11/06 06:24:18;;;;;;;13.25;9.02;;;3.10;91.00;;;;;;5037382;28;20021;-82
2022/11/06 06:26:44;;;;;;;15.73;9.40;;;3.20;90.10;;;;;;5036984;28;20041;-81
2022/11/06 06:29:09;;;;;;;14.80;8.82;;;3.20;89.60;;;;;;5055187;28;20029;-82
2022/11/06 06:31:35;;;;;;;16.75;9.30;;;3.20;88.90;;;;;;5055109;28;20033;-81
2022/11/06 06:34:00;;;;;;;15.98;9.43;;;3.20;89.00;;;;;;5055042;28;20437;-81
2022/11/06 06:36:26;;;;;;;14.70;9.20;;;3.20;89.90;;;;;;5055288;28;20040;-82
2022/11/06 06:38:51;;;;;;;15.98;9.15;;;3.30;89.10;;;;;;5037246;28;20058;-81
2022/11/06 06:41:17;;;;;;;18.95;10.70;;;3.20;89.00;;;;;;5054751;28;20519;-81
2022/11/06 06:43:46;;;;;;;15.77;9.55;;;3.20;89.20;;;;;;5053527;28;20056;-80
2022/11/06 06:46:11;;;;;;;16.42;10.20;;;3.20;90.10;;;;;;5036978;28;20095;-80
2022/11/06 06:48:37;;;;;;;15.55;9.27;;;3.20;89.60;;;;;;5036800;28;20465;-81
2022/11/06 06:51:03;;;;;;;14.25;9.52;;;3.30;89.70;;;;;;5037355;28;20530;-79
2022/11/06 06:53:29;;;;;;;16.98;9.18;;;3.30;89.70;;;;;;5037075;28;20033;-80
2022/11/06 06:55:58;;;;;;;16.08;9.88;;;3.40;89.80;;;;;;5055403;28;20051;-80
2022/11/06 06:58:23;;;;;;;14.30;8.70;;;3.40;90.00;;;;;;5055355;28;20021;-82
2022/11/06 07:00:49;;;;;;;13.75;8.68;;;3.40;89.80;;;;;;5056384;28;20385;-81
2022/11/06 07:03:14;;;;;;;14.20;8.80;;;3.50;89.90;;;;;;5065771;28;20025;-80
2022/11/06 07:05:40;;;;;;;15.93;9.20;;;3.50;89.60;;;;;;5037069;28;20021;-80
2022/11/06 07:08:06;;;;;;;15.98;8.77;;;3.60;89.60;;;;;;5036657;28;20032;-81
2022/11/06 07:10:32;;;;;;;12.80;7.82;;;3.60;89.50;;;;;;5037095;28;20029;-81
2022/11/06 07:13:01;;;;;;;16.40;9.32;;;3.70;89.60;;;;;;5054882;28;20488;-81
2022/11/06 07:15:27;;;;;;;16.27;9.80;;;3.70;89.20;;;;;;5036628;28;20025;-80
2022/11/06 07:17:52;;;;;;;14.40;8.73;;;3.80;89.10;;;;;;5054603;28;20051;-81
2022/11/06 07:20:18;;;;;;;14.00;9.02;;;3.80;88.90;;;;;;5054477;28;20474;-81
2022/11/06 07:22:44;;;;;;;13.45;8.88;;;3.90;88.60;;;;;;5054681;28;20419;-80
2022/11/06 07:25:09;;;;;;;14.13;8.75;;;4.00;88.30;;;;;;5054083;28;20497;-81
2022/11/06 07:27:35;;;;;;;11.07;7.60;;;4.10;88.00;;;;;;5036347;28;20029;-82
2022/11/06 07:30:00;;;;;;;15.70;8.30;;;4.20;87.60;;;;;;5054700;28;20432;-81
2022/11/06 07:32:26;;;;;;;13.32;8.52;;;4.30;87.20;;;;;;5036528;28;20063;-80
2022/11/06 07:34:52;;;;;;;11.77;7.53;;;4.30;87.90;;;;;;5053902;28;20194;-79
2022/11/06 07:37:17;;;;;;;9.05;6.82;;;4.40;87.20;;;;;;5053857;28;20029;-81
2022/11/06 07:39:43;;;;;;;9.48;6.47;;;4.50;87.20;;;;;;5054845;28;20031;-87
2022/11/06 07:42:09;;;;;;;8.23;5.90;;;4.60;86.90;;;;;;5054350;28;20032;-80
2022/11/06 07:44:34;;;;;;;7.72;5.72;;;4.70;86.80;;;;;;5035904;28;20021;-80
2022/11/06 07:47:00;;;;;;;8.32;5.68;;;4.90;86.50;;;;;;5051651;28;20047;-82
2022/11/06 07:49:25;;;;;;;8.90;5.45;;;5.10;86.20;;;;;;5054250;28;20037;-81
2022/11/06 07:51:52;;;;;;;7.72;5.40;;;5.20;85.00;;;;;;5035479;28;20144;-80
2022/11/06 07:54:17;;;;;;;7.30;5.38;;;5.30;84.50;;;;;;5035630;28;20108;-79
2022/11/06 07:56:43;;;;;;;6.05;4.60;;;5.50;83.80;;;;;;5054087;28;20032;-80
2022/11/06 07:59:09;;;;;;;5.72;4.18;;;5.60;83.10;;;;;;5053907;28;20461;-80
2022/11/06 08:01:34;;;;;;;4.95;4.38;;;5.80;82.70;;;;;;5053540;28;20465;-81
2022/11/06 08:04:00;;;;;;;6.05;4.32;;;5.90;82.10;;;;;;5053481;28;20029;-82
2022/11/06 08:06:25;;;;;;;6.80;4.70;;;6.00;81.40;;;;;;5053304;28;20025;-80
2022/11/06 08:08:51;;;;;;;5.93;4.22;;;6.10;81.20;;;;;;5053314;28;20027;-79
2022/11/06 08:11:16;;;;;;;6.68;4.03;;;6.20;80.60;;;;;;5035234;28;20037;-80
2022/11/06 08:13:42;;;;;;;4.22;3.65;;;6.20;80.10;;;;;;5053547;28;20477;-80
2022/11/06 08:16:11;;;;;;;5.80;4.05;;;6.20;80.10;;;;;;5035543;28;20025;-80
2022/11/06 08:18:37;;;;;;;4.45;3.67;;;6.30;79.90;;;;;;5035179;28;20025;-82
2022/11/06 08:21:03;;;;;;;4.00;3.28;;;6.40;79.60;;;;;;5035333;28;20025;-82
2022/11/06 08:23:29;;;;;;;4.88;3.70;;;6.50;78.90;;;;;;5034961;28;20029;-80
2022/11/06 08:26:00;;;;;;;4.15;3.33;;;6.60;78.20;;;;;;5035290;28;20028;-80
2022/11/06 08:28:27;;;;;;;3.97;3.33;;;6.90;78.10;;;;;;5053410;28;20310;-89
2022/11/06 08:30:53;;;;;;;3.25;2.80;;;7.00;77.40;;;;;;5035473;28;20135;-77
2022/11/06 08:33:21;;;;;;;4.97;3.08;;;7.20;76.40;;;;;;5053274;28;20025;-80
2022/11/06 08:35:46;;;;;;;3.15;2.50;;;7.30;76.10;;;;;;5036503;28;20129;-83
2022/11/06 08:38:12;;;;;;;18.15;3.60;;;7.50;75.10;;;;;;5055831;28;20061;-81
2022/11/06 08:40:38;;;;;;;6.90;2.95;;;8.00;79.60;;;;;;5035763;28;20025;-79
2022/11/06 08:43:07;;;;;;;6.43;2.53;;;8.40;77.90;;;;;;5052684;28;20017;-80
2022/11/06 08:45:39;;;;;;;2.85;2.45;;;8.80;73.90;;;;;;5052669;28;20029;-80
2022/11/06 08:48:06;;;;;;;5.10;2.78;;;9.20;71.30;;;;;;5034528;28;20095;-82
2022/11/06 08:50:33;;;;;;;2.42;1.83;;;9.50;70.40;;;;;;5034924;28;20051;-82
2022/11/06 08:53:02;;;;;;;4.35;2.25;;;10.00;69.60;;;;;;5035297;28;20017;-83
2022/11/06 08:55:29;;;;;;;2.38;1.90;;;10.40;65.60;;;;;;5035260;28;20362;-82
2022/11/06 08:57:54;;;;;;;2.25;1.88;;;10.60;65.40;;;;;;5034939;28;20574;-84
2022/11/06 09:00:20;;;;;;;1.95;1.45;;;11.10;65.90;;;;;;5039139;28;20025;-82
2022/11/06 09:02:46;;;;;;;2.35;1.90;;;11.60;63.00;;;;;;5039122;28;20088;-83
2022/11/06 09:05:11;;;;;;;1.98;1.75;;;12.00;60.40;;;;;;5057209;28;20028;-81
2022/11/06 09:07:37;;;;;;;1.88;1.40;;;12.20;59.10;;;;;;5064843;28;20021;-81
2022/11/06 09:10:03;;;;;;;2.33;1.55;;;12.30;57.60;;;;;;5057176;28;20025;-82
2022/11/06 09:12:29;;;;;;;1.83;1.48;;;12.50;57.00;;;;;;5057499;28;20068;-82
2022/11/06 09:14:54;;;;;;;1.40;1.30;;;12.70;54.60;;;;;;5040133;28;20524;-81
2022/11/06 09:17:22;;;;;;;1.40;1.30;;;12.80;55.70;;;;;;5038689;28;20116;-84
2022/11/06 09:19:51;;;;;;;2.33;1.52;;;13.00;55.20;;;;;;5038660;28;20031;-82
2022/11/06 09:22:17;;;;;;;1.52;1.30;;;13.00;52.60;;;;;;5056303;28;20037;-82
2022/11/06 09:24:43;;;;;;;1.52;1.35;;;13.00;53.10;;;;;;5056044;28;20104;-82
2022/11/06 09:27:09;;;;;;;1.60;1.25;;;13.20;53.00;;;;;;5049374;28;20048;-81
2022/11/06 09:29:34;;;;;;;2.22;1.63;;;13.20;51.10;;;;;;5036796;28;20548;-81
2022/11/06 09:32:00;;;;;;;1.92;1.50;;;12.80;51.80;;;;;;5036749;28;20076;-83
2022/11/06 09:34:26;;;;;;;1.55;1.30;;;12.50;53.70;;;;;;5036712;28;20028;-81
2022/11/06 09:36:51;;;;;;;2.20;1.50;;;12.30;54.00;;;;;;5036381;28;20525;-80
2022/11/06 09:39:17;;;;;;;1.85;1.15;;;12.30;54.10;;;;;;5036169;28;20363;-80
2022/11/06 09:41:57;;;;;;;4.80;1.38;;;12.30;54.40;;;;;;5018308;28;20025;-79
2022/11/06 09:44:36;;;;;;;2.17;1.55;;;12.30;54.80;;;;;;5028102;28;20026;-80
2022/11/06 09:47:12;;;;;;;1.60;1.25;;;12.30;54.30;;;;;;5035935;28;20105;-81
2022/11/06 09:49:50;;;;;;;1.85;1.38;;;12.40;54.50;;;;;;5017897;28;20033;-81
2022/11/06 09:52:35;;;;;;;1.77;1.63;;;12.50;54.80;;;;;;5039947;28;20428;-80
2022/11/06 09:55:09;;;;;;;1.38;1.27;;;12.70;55.50;;;;;;5036966;28;20029;-83
2022/11/06 09:57:53;;;;;;;1.48;1.38;;;12.90;52.80;;;;;;5023226;28;20036;-85
2022/11/06 10:00:19;;;;;;;2.05;1.00;;;12.90;51.50;;;;;;5048458;28;20037;-82
2022/11/06 10:02:50;;;;;;;1.10;1.00;;;13.00;51.80;;;;;;5056139;28;20025;-81
2022/11/06 10:05:24;;;;;;;1.65;1.42;;;13.00;50.90;;;;;;5052992;28;20025;-88
2022/11/06 10:07:54;;;;;;;2.00;1.38;;;13.00;50.50;;;;;;5047187;28;20493;-88
2022/11/06 10:10:27;;;;;;;1.67;1.30;;;12.90;51.10;;;;;;5036313;28;20029;-81
2022/11/06 10:13:11;;;;;;;2.70;1.25;;;12.80;51.60;;;;;;5049416;28;20564;-80
2022/11/06 10:15:49;;;;;;;1.20;1.10;;;12.70;52.40;;;;;;5050865;28;20378;-86
2022/11/06 10:18:33;;;;;;;2.00;1.58;;;12.40;52.70;;;;;;5032251;28;20029;-82
2022/11/06 10:21:14;;;;;;;2.42;1.25;;;12.30;53.50;;;;;;5048388;28;20021;-79
2022/11/06 10:23:58;;;;;;;1.60;1.33;;;12.00;54.30;;;;;;5030914;28;20029;-80
2022/11/06 10:26:35;;;;;;;2.65;1.88;;;12.00;54.80;;;;;;5041842;28;20382;-84
2022/11/06 10:29:18;;;;;;;1.38;1.25;;;12.10;53.70;;;;;;5053167;28;20500;-80
2022/11/06 10:32:21;;;;;;;1.25;1.10;;;12.00;53.20;;;;;;5038663;28;20072;-85
2022/11/06 10:34:53;;;;;;;1.55;1.20;;;11.80;53.80;;;;;;5055347;28;20032;-79
2022/11/06 10:37:27;;;;;;;2.58;1.80;;;11.70;55.20;;;;;;5055150;28;20029;-81
2022/11/06 10:39:54;;;;;;;2.45;1.52;;;11.70;54.60;;;;;;5048887;28;20033;-79
2022/11/06 10:42:29;;;;;;;4.90;2.13;;;11.90;53.90;;;;;;5033800;28;20112;-80
2022/11/06 10:45:02;;;;;;;3.05;1.88;;;12.10;53.10;;;;;;5046564;28;20029;-80
2022/11/06 10:47:54;;;;;;;3.10;1.95;;;12.30;52.80;;;;;;5046115;28;20041;-84
2022/11/06 10:50:23;;;;;;;1.45;1.10;;;12.60;52.30;;;;;;5049727;28;20074;-78
2022/11/06 10:53:26;;;;;;;0.75;0.70;;;12.90;52.00;;;;;;5044086;28;20108;-80
2022/11/06 10:56:08;;;;;;;3.03;0.70;;;12.90;50.20;;;;;;5000251;28;20112;-80
2022/11/06 10:58:34;;;;;;;2.15;1.55;;;12.90;50.30;;;;;;5035432;28;20018;-80
2022/11/06 11:01:04;;;;;;;5.13;3.70;;;13.20;49.90;;;;;;5032970;28;20017;-79
2022/11/06 11:03:34;;;;;;;1.30;0.85;;;13.60;50.20;;;;;;5049006;28;20068;-79
2022/11/06 11:06:00;;;;;;;1.38;1.00;;;13.80;48.40;;;;;;5054449;28;20377;-80
2022/11/06 11:08:29;;;;;;;2.83;2.00;;;13.90;48.10;;;;;;5055413;28;20481;-82
2022/11/06 11:11:04;;;;;;;5.88;3.30;;;14.10;47.90;;;;;;5054875;28;20504;-85
2022/11/06 11:13:31;;;;;;;2.15;1.30;;;14.10;45.70;;;;;;5055520;28;20017;-85
2022/11/06 11:15:56;;;;;;;1.27;0.98;;;14.20;46.50;;;;;;5054840;28;20032;-87
2022/11/06 11:18:33;;;;;;;0.80;0.80;;;14.20;45.40;;;;;;5054974;28;20021;-86
2022/11/06 11:21:17;;;;;;;1.58;0.70;;;14.30;45.10;;;;;;5054675;28;20078;-86
2022/11/06 11:24:04;;;;;;;0.70;0.55;;;14.50;44.20;;;;;;5037891;28;20021;-83
2022/11/06 11:26:32;;;;;;;0.60;0.60;;;14.50;45.00;;;;;;5054636;28;20025;-89
2022/11/06 11:29:01;;;;;;;1.17;0.70;;;14.40;44.00;;;;;;5037157;28;20086;-88
2022/11/06 11:31:32;;;;;;;1.02;0.60;;;14.20;44.30;;;;;;5054817;28;20090;-81
2022/11/06 11:34:16;;;;;;;1.55;0.90;;;14.10;45.70;;;;;;5054320;28;20032;-80
2022/11/06 11:36:58;;;;;;;1.08;0.60;;;14.20;45.40;;;;;;5036184;28;20040;-81
2022/11/06 11:39:35;;;;;;;1.17;0.70;;;14.20;44.60;;;;;;5053921;28;20381;-83
2022/11/06 11:42:23;;;;;;;0.70;0.68;;;14.40;44.40;;;;;;5035932;28;20359;-81
2022/11/06 11:45:07;;;;;;;1.98;1.67;;;14.40;43.90;;;;;;5036134;28;20504;-82
2022/11/06 11:47:33;;;;;;;0.65;0.65;;;14.30;45.70;;;;;;5053710;28;20406;-81
2022/11/06 11:50:16;;;;;;;0.80;0.80;;;14.20;45.50;;;;;;5053533;28;20025;-81
2022/11/06 11:52:44;;;;;;;0.82;0.80;;;14.10;45.00;;;;;;5053259;28;20032;-82
2022/11/06 11:55:21;;;;;;;0.93;0.50;;;13.90;46.60;;;;;;5035784;28;20021;-81
2022/11/06 11:57:50;;;;;;;0.47;0.30;;;13.90;46.70;;;;;;5053535;28;20024;-81
2022/11/06 12:00:18;;;;;;;0.52;0.50;;;14.00;45.90;;;;;;5053272;28;20484;-80
2022/11/06 12:02:54;;;;;;;0.60;0.60;;;14.00;44.80;;;;;;5035471;28;20124;-80
2022/11/06 12:05:36;;;;;;;0.52;0.38;;;13.60;45.80;;;;;;5035910;28;20017;-80
2022/11/06 12:08:03;;;;;;;0.30;0.30;;;13.50;46.10;;;;;;5053456;28;20458;-81
2022/11/06 12:10:38;;;;;;;0.40;0.30;;;13.80;45.70;;;;;;5053246;28;20029;-82
2022/11/06 12:13:12;;;;;;;0.77;0.68;;;14.00;44.10;;;;;;5053462;28;20032;-79
2022/11/06 12:15:57;;;;;;;0.22;0.20;;;14.00;44.60;;;;;;5035322;28;20036;-74
2022/11/06 12:18:25;;;;;;;0.28;0.28;;;14.10;44.10;;;;;;5053319;28;20021;-76
2022/11/06 12:21:16;;;;;;;0.65;0.30;;;14.10;44.30;;;;;;5053141;28;20021;-77
2022/11/06 12:24:15;;;;;;;0.93;0.20;;;14.30;43.20;;;;;;5052923;28;20071;-81
2022/11/06 12:27:03;;;;;;;0.50;0.50;;;14.60;42.20;;;;;;5047552;28;20029;-76
2022/11/06 12:29:41;;;;;;;0.47;0.40;;;14.80;41.10;;;;;;5051784;28;20519;-76
2022/11/06 12:32:15;;;;;;;0.15;0.15;;;15.10;40.10;;;;;;5052741;28;20032;-81
2022/11/06 12:34:51;;;;;;;0.20;0.20;;;15.30;39.50;;;;;;5052924;28;20032;-77
2022/11/06 12:37:19;;;;;;;;;;;14.90;39.90;;;;;;5053448;28;20508;-84
2022/11/06 12:39:59;;;;;;;2.97;0.60;;;14.40;39.60;;;;;;5052887;28;19931;-80
2022/11/06 12:42:28;;;;;;;0.68;0.30;;;14.10;41.40;;;;;;5052884;28;20082;-81
2022/11/06 12:44:54;;;;;;;1.85;0.10;;;14.00;43.60;;;;;;5052949;28;20106;-81
2022/11/06 12:47:23;;;;;;;0.63;0.40;;;13.90;42.60;;;;;;5052992;28;20056;-81
2022/11/06 12:49:54;;;;;;;3.05;0.30;;;13.90;43.20;;;;;;5035224;28;20029;-80
2022/11/06 12:52:40;;;;;;;0.32;0.30;;;14.10;43.90;;;;;;5034696;28;20044;-81
2022/11/06 12:55:14;;;;;;;;;;;14.40;41.60;;;;;;5014623;28;20385;-81
2022/11/06 12:57:57;;;;;;;0.40;0.40;;;14.90;40.10;;;;;;5034901;28;19951;-80
2022/11/06 13:00:39;;;;;;;2.75;0.40;;;14.80;39.50;;;;;;5035105;28;20052;-80
2022/11/06 13:03:41;;;;;;;0.30;0.30;;;14.70;41.20;;;;;;5035070;28;20534;-81
2022/11/06 13:06:48;;;;;;;0.32;0.32;;;14.20;41.00;;;;;;5052823;28;20025;-81
2022/11/06 13:09:27;;;;;;;0.63;0.40;;;13.70;42.50;;;;;;5037883;28;20044;-81
2022/11/06 13:12:03;;;;;;;0.57;0.28;;;13.40;44.30;;;;;;5034713;28;20451;-79
2022/11/06 13:14:37;;;;;;;1.13;0.45;;;13.30;45.70;;;;;;5052883;28;20025;-79
2022/11/06 13:17:11;;;;;;;1.65;0.30;;;13.20;46.60;;;;;;5053098;28;20025;-78
2022/11/06 13:19:42;;;;;;;1.50;0.20;;;13.20;47.70;;;;;;5052418;28;20021;-79
2022/11/06 13:22:22;;;;;;;0.40;0.30;;;13.10;47.60;;;;;;5052252;28;20032;-77
2022/11/06 13:25:15;;;;;;;0.47;0.43;;;13.00;48.00;;;;;;5034545;28;20408;-78